LFRQ/UIP METAR and TAF weather

Enter ICAO airport designator
Station Type Date Time Source
LFRQ METAR 2019/10/15 04:00 UTC NOAA

LFRQ 150400Z AUTO 25012KT 9999 SCT020/// BKN025/// BKN066/// ///TCU 12/10 Q1006


Station Type Date Time Source
LFRQ Decoded METAR 2019/10/15 04:00 UTC NOAA

Quimper, France (LFRQ) 47-58N 004-10W 94M
Oct 15, 2019 - 12:00 AM EDT / 2019.10.15 0400 UTC
Wind: from the WSW (250 degrees) at 14 MPH (12 KT):0
Visibility: greater than 7 mile(s):0
Sky conditions: mostly cloudy
Weather: Towering cumulus clouds observed
Temperature: 53 F (12 C)
Dew Point: 50 F (10 C)
Relative Humidity: 87%
Pressure (altimeter): 29.71 in. Hg (1006 hPa)
ob: LFRQ 150400Z AUTO 25012KT 9999 SCT020/// BKN025/// BKN066/// ///TCU 12/10 Q1006
cycle: 4

Station Type Date Time Source
LFRQ TAF 2019/10/14 21:57 UTC NOAA

TAF
AMD TAF
AMD LFRQ 142100Z 1421/1518 CNL

Example: see airport list